Time;durP1;ratioP1;P1;durP2;ratioP2;P2;SDS_P1;SDS_P2;PMS_P1;PMS_P2;Temp;Humidity;BMP_temperature;BMP_pressure;BME280_temperature;BME280_humidity;BME280_pressure;Samples;Min_cycle;Max_cycle;Signal;HPM_P1;HPM_P2
2020/12/02 00:01:01;;;;;;;33.00;7.33;;;;;;;4.20;100.00;101535.22;5009002;28;20400;-68
2020/12/02 00:03:45;;;;;;;36.50;8.40;;;;;;;4.23;100.00;101535.34;5009501;28;20035;-65
2020/12/02 00:06:12;;;;;;;31.20;7.50;;;;;;;4.24;100.00;101537.09;5010961;28;20053;-66
2020/12/02 00:08:42;;;;;;;30.47;8.20;;;;;;;4.25;100.00;101542.38;5008711;28;20272;-66
2020/12/02 00:11:10;;;;;;;32.83;8.07;;;;;;;4.24;100.00;101534.50;5012662;28;20276;-65
2020/12/02 00:13:40;;;;;;;34.00;8.00;;;;;;;4.28;100.00;101528.66;5007371;28;20304;-66
2020/12/02 00:16:07;;;;;;;35.67;8.87;;;;;;;4.24;100.00;101532.84;5014369;28;20272;-66
2020/12/02 00:18:34;;;;;;;34.30;9.37;;;;;;;4.25;100.00;101538.91;5009351;28;20295;-66
2020/12/02 00:20:59;;;;;;;35.27;7.63;;;;;;;4.21;100.00;101531.81;5009523;28;20360;-65
2020/12/02 00:23:25;;;;;;;34.07;8.13;;;;;;;4.20;100.00;101528.34;5009428;28;21472;-65
2020/12/02 00:25:50;;;;;;;39.93;9.37;;;;;;;4.17;100.00;101530.81;5007449;28;20523;-66
2020/12/02 00:28:16;;;;;;;29.70;8.47;;;;;;;4.17;100.00;101535.09;5007717;28;20098;-66
2020/12/02 00:30:42;;;;;;;38.80;10.00;;;;;;;4.18;100.00;101537.75;5010634;28;20034;-66
2020/12/02 00:33:19;;;;;;;43.73;9.40;;;;;;;4.17;100.00;101542.88;5007790;28;20485;-65
2020/12/02 00:35:45;;;;;;;42.47;9.37;;;;;;;4.19;100.00;101538.63;5008406;28;20264;-67
2020/12/02 00:38:13;;;;;;;35.00;9.10;;;;;;;4.18;100.00;101547.22;5009168;28;21009;-66
2020/12/02 00:40:44;;;;;;;38.20;9.03;;;;;;;4.16;100.00;101538.53;5008858;28;20497;-65
2020/12/02 00:43:15;;;;;;;43.37;9.30;;;;;;;4.14;100.00;101535.00;5009952;28;20667;-65
2020/12/02 00:45:41;;;;;;;37.47;8.80;;;;;;;4.21;100.00;101539.56;5013690;28;20733;-65
2020/12/02 00:48:11;;;;;;;42.07;9.70;;;;;;;4.20;100.00;101535.22;5011056;28;20643;-66
2020/12/02 00:50:37;;;;;;;34.27;8.60;;;;;;;4.20;100.00;101535.22;5007903;28;20288;-66
2020/12/02 00:53:10;;;;;;;37.77;8.67;;;;;;;4.19;100.00;101529.16;5015041;28;20831;-66
2020/12/02 00:55:35;;;;;;;;;;;;;;;4.16;100.00;101533.34;5019397;28;20040;-66
2020/12/02 00:58:03;;;;;;;34.23;8.67;;;;;;;4.16;100.00;101533.34;5016411;28;19918;-65
2020/12/02 01:00:34;;;;;;;32.87;9.23;;;;;;;4.17;100.00;101542.88;5014439;28;20034;-66
2020/12/02 01:03:25;;;;;;;42.30;10.43;;;;;;;4.18;100.00;101536.88;5013046;28;20280;-66
2020/12/02 01:05:52;;;;;;;36.53;8.53;;;;;;;4.17;100.00;101540.28;5008324;28;20285;-65
2020/12/02 01:08:19;;;;;;;47.33;9.63;;;;;;;4.15;100.00;101535.06;5013689;28;20281;-65
2020/12/02 01:10:48;;;;;;;36.83;9.13;;;;;;;4.13;100.00;101535.81;5013152;28;20285;-65
2020/12/02 01:13:13;;;;;;;44.00;9.10;;;;;;;4.11;100.00;101536.59;5010616;28;20335;-66
2020/12/02 01:15:38;;;;;;;41.17;10.30;;;;;;;4.14;100.00;101532.41;5014903;28;20319;-65
2020/12/02 01:18:30;;;;;;;49.03;12.83;;;;;;;4.14;100.00;101529.81;5012023;28;20026;-66
2020/12/02 01:21:16;;;;;;;52.00;11.30;;;;;;;4.14;100.00;101527.22;5010535;28;20049;-65
2020/12/02 01:23:48;;;;;;;50.60;10.30;;;;;;;4.14;100.00;101527.22;5011585;28;20766;-66
2020/12/02 01:26:16;;;;;;;56.78;11.25;;;;;;;4.13;100.00;101528.06;5013280;28;20289;-65
2020/12/02 01:28:46;;;;;;;63.83;12.37;;;;;;;4.11;100.00;101525.38;5010304;28;20034;-66
2020/12/02 01:31:12;;;;;;;33.83;8.60;;;;;;;4.17;100.00;101522.16;5011130;28;20288;-66
2020/12/02 01:33:37;;;;;;;59.93;12.03;;;;;;;4.13;100.00;101523.75;5010981;28;20775;-65
2020/12/02 01:36:03;;;;;;;49.47;10.10;;;;;;;4.14;100.00;101516.88;5010718;28;20029;-65
2020/12/02 01:38:40;;;;;;;45.73;9.23;;;;;;;4.12;100.00;101503.88;5011257;28;20029;-65
2020/12/02 01:41:08;;;;;;;43.33;8.97;;;;;;;4.13;100.00;101512.53;5015518;28;20130;-66
2020/12/02 01:43:34;;;;;;;45.53;9.80;;;;;;;4.07;100.00;101508.84;5011525;28;20361;-66
2020/12/02 01:46:34;;;;;;;44.57;8.53;;;;;;;4.09;100.00;101509.78;5013509;28;20353;-65
2020/12/02 01:49:29;;;;;;;54.20;10.50;;;;;;;4.04;100.00;101503.56;5018491;28;20097;-66
2020/12/02 01:52:24;;;;;;;32.00;7.47;;;;;;;4.01;100.00;101506.03;5010828;28;20269;-65
2020/12/02 01:54:55;;;;;;;39.23;10.50;;;;;;;4.00;100.00;101504.25;5010385;28;20277;-66
2020/12/02 01:57:25;;;;;;;51.33;10.30;;;;;;;3.98;100.00;101505.88;5011059;28;20285;-65
2020/12/02 02:00:16;;;;;;;38.60;9.60;;;;;;;3.99;100.00;101505.06;5013977;28;20323;-65
2020/12/02 02:02:50;;;;;;;41.60;9.53;;;;;;;3.96;100.00;101507.53;5015597;28;20285;-65
2020/12/02 02:05:18;;;;;;;41.63;8.33;;;;;;;3.95;100.00;101518.69;5007269;28;20367;-65
2020/12/02 02:07:43;;;;;;;46.83;10.13;;;;;;;3.92;100.00;101508.22;5010734;28;20277;-66
2020/12/02 02:10:18;;;;;;;45.80;9.73;;;;;;;3.89;100.00;101508.09;5010644;28;22300;-66
2020/12/02 02:12:56;;;;;;;40.43;10.13;;;;;;;3.90;100.00;101511.56;5009379;28;20034;-65
2020/12/02 02:15:46;;;;;;;37.27;8.03;;;;;;;3.91;100.00;101506.47;5011888;28;20286;-66
2020/12/02 02:18:16;;;;;;;32.63;8.97;;;;;;;3.90;100.00;101503.81;5010600;28;20324;-66
2020/12/02 02:20:45;;;;;;;47.70;10.27;;;;;;;3.87;100.00;101509.72;5010583;28;20284;-65
2020/12/02 02:23:14;;;;;;;50.93;10.47;;;;;;;3.83;100.00;101510.41;5013494;28;20276;-66
2020/12/02 02:25:42;;;;;;;52.30;10.60;;;;;;;3.81;100.00;101514.66;5009936;28;20280;-65
2020/12/02 02:28:09;;;;;;;53.03;8.97;;;;;;;3.88;100.00;101508.94;5008243;28;20311;-65
2020/12/02 02:30:34;;;;;;;50.50;10.97;;;;;;;3.88;100.00;101516.69;5011810;28;20666;-66
2020/12/02 02:33:01;;;;;;;51.80;11.00;;;;;;;3.84;100.00;101509.59;5011572;28;20283;-66
2020/12/02 02:35:28;;;;;;;52.83;11.73;;;;;;;3.82;100.00;101511.25;5013297;28;20036;-66
2020/12/02 02:37:53;;;;;;;48.20;12.07;;;;;;;3.81;100.00;101509.47;5009737;28;20656;-66
2020/12/02 02:40:19;;;;;;;46.50;10.37;;;;;;;3.78;100.00;101505.06;5009738;28;20277;-65
2020/12/02 02:42:49;;;;;;;52.47;11.23;;;;;;;3.76;100.00;101511.00;5010610;28;20060;-66
2020/12/02 02:45:27;;;;;;;62.77;13.37;;;;;;;3.74;100.00;101510.03;5008808;28;20037;-67
2020/12/02 02:47:58;;;;;;;44.33;10.67;;;;;;;3.76;100.00;101511.88;5013851;28;20268;-66
2020/12/02 02:50:25;;;;;;;49.57;11.67;;;;;;;3.73;100.00;101510.84;5009987;28;20373;-66
2020/12/02 02:52:52;;;;;;;68.90;12.60;;;;;;;3.70;100.00;101505.56;5014901;28;20280;-66
2020/12/02 02:55:21;;;;;;;62.47;12.53;;;;;;;3.68;100.00;101502.03;5012634;28;20365;-66
2020/12/02 02:57:47;;;;;;;49.47;11.57;;;;;;;3.68;100.00;101502.03;5005057;28;20288;-66
2020/12/02 03:00:20;;;;;;;42.37;10.70;;;;;;;3.70;100.00;101495.22;5016070;28;20285;-65
2020/12/02 03:02:46;;;;;;;61.17;13.10;;;;;;;3.66;100.00;101493.31;5009352;28;20029;-65
2020/12/02 03:05:14;;;;;;;51.80;11.17;;;;;;;3.66;100.00;101495.91;5012264;28;20794;-65
2020/12/02 03:07:40;;;;;;;63.27;13.93;;;;;;;3.66;100.00;101488.16;5012946;28;20033;-66
2020/12/02 03:10:06;;;;;;;63.60;13.77;;;;;;;3.63;100.00;101498.34;5006844;28;20273;-66
2020/12/02 03:12:32;;;;;;;47.87;11.23;;;;;;;3.64;100.00;101489.78;5022386;28;20980;-66
2020/12/02 03:14:58;;;;;;;55.40;12.90;;;;;;;3.65;100.00;101491.56;5006744;28;20436;-66
2020/12/02 03:17:25;;;;;;;54.90;12.57;;;;;;;3.65;100.00;101494.16;5011519;28;20037;-66
2020/12/02 03:20:00;;;;;;;69.17;13.87;;;;;;;3.66;100.00;101489.03;5009627;28;20288;-65
2020/12/02 03:22:27;;;;;;;56.67;13.37;;;;;;;3.67;100.00;101493.38;5009692;28;20763;-66
2020/12/02 03:24:57;;;;;;;62.60;14.37;;;;;;;3.62;100.00;101489.69;5008374;28;20358;-65
2020/12/02 03:27:23;;;;;;;50.97;13.07;;;;;;;3.67;100.00;101484.75;5013707;28;20288;-64
2020/12/02 03:29:49;;;;;;;68.47;14.93;;;;;;;3.63;100.00;101488.00;5005152;28;20367;-66
2020/12/02 03:32:14;;;;;;;65.60;15.03;;;;;;;3.59;100.00;101486.13;5008092;28;20367;-65
2020/12/02 03:34:40;;;;;;;59.53;15.87;;;;;;;3.57;100.00;101483.47;5008093;28;20432;-66
2020/12/02 03:37:05;;;;;;;63.50;16.13;;;;;;;3.58;100.00;101484.34;5009334;28;20489;-66
2020/12/02 03:39:31;;;;;;;60.93;14.30;;;;;;;3.57;100.00;101477.41;5008065;28;20046;-65
2020/12/02 03:41:56;;;;;;;67.30;17.13;;;;;;;3.58;100.00;101479.19;5012834;28;20684;-66
2020/12/02 03:44:21;;;;;;;61.90;16.73;;;;;;;3.55;100.00;101484.22;5012704;28;20030;-66
2020/12/02 03:46:47;;;;;;;62.20;17.40;;;;;;;3.49;100.00;101475.38;5007749;28;20084;-65
2020/12/02 03:49:12;;;;;;;54.40;15.10;;;;;;;3.48;100.00;101467.56;5009297;28;20032;-65
2020/12/02 03:51:38;;;;;;;55.07;15.70;;;;;;;3.48;100.00;101465.84;5011195;28;20503;-66
2020/12/02 03:54:05;;;;;;;45.57;14.83;;;;;;;3.48;100.00;101468.44;5013516;28;20488;-65
2020/12/02 03:56:30;;;;;;;50.27;14.77;;;;;;;3.52;100.00;101457.44;5010661;28;20096;-66
2020/12/02 03:58:56;;;;;;;38.27;12.23;;;;;;;3.47;100.00;101455.44;5009596;28;20284;-65
2020/12/02 04:01:21;;;;;;;50.23;15.27;;;;;;;3.44;100.00;101461.38;5008301;28;20095;-65
2020/12/02 04:03:47;;;;;;;42.63;13.80;;;;;;;3.43;100.00;101459.63;5008062;28;20022;-66
2020/12/02 04:06:14;;;;;;;53.33;14.83;;;;;;;3.40;100.00;101454.31;5009260;28;20291;-66
2020/12/02 04:08:41;;;;;;;51.80;16.70;;;;;;;3.40;100.00;101459.50;5007270;28;20076;-66
2020/12/02 04:11:08;;;;;;;42.73;14.07;;;;;;;3.43;100.00;101462.19;5004384;28;20722;-66
2020/12/02 04:13:34;;;;;;;49.77;15.50;;;;;;;3.37;100.00;101459.34;5009938;28;20346;-65
2020/12/02 04:16:00;;;;;;;50.03;14.83;;;;;;;3.38;100.00;101450.75;5010276;28;20276;-66
2020/12/02 04:18:26;;;;;;;46.83;14.07;;;;;;;3.38;100.00;101453.34;5009774;28;20053;-66
2020/12/02 04:20:51;;;;;;;50.63;15.17;;;;;;;3.35;100.00;101453.22;5011084;28;20328;-66
2020/12/02 04:23:16;;;;;;;48.80;14.33;;;;;;;3.37;100.00;101454.16;5011536;28;20499;-66
2020/12/02 04:25:42;;;;;;;42.07;15.43;;;;;;;3.38;100.00;101452.47;5009958;28;20061;-65
2020/12/02 04:28:07;;;;;;;45.53;14.63;;;;;;;3.33;100.00;101457.44;5015834;28;20399;-66
2020/12/02 04:30:33;;;;;;;41.10;13.10;;;;;;;3.37;100.00;101453.28;5013322;28;20032;-65
2020/12/02 04:32:58;;;;;;;43.90;13.33;;;;;;;3.35;100.00;101455.81;5011560;28;20028;-66
2020/12/02 04:35:24;;;;;;;49.30;14.97;;;;;;;3.31;100.00;101448.75;5012563;28;20033;-65
2020/12/02 04:37:49;;;;;;;45.07;13.93;;;;;;;3.31;100.00;101453.03;5013777;28;20456;-66
2020/12/02 04:40:25;;;;;;;54.80;15.63;;;;;;;3.29;100.00;101455.56;5013317;28;20099;-65
2020/12/02 04:43:00;;;;;;;52.20;15.47;;;;;;;3.29;100.00;101446.94;5013145;28;20111;-65
2020/12/02 04:45:29;;;;;;;42.77;13.57;;;;;;;3.31;100.00;101443.59;5010717;28;20261;-66
2020/12/02 04:47:58;;;;;;;45.83;15.60;;;;;;;3.30;100.00;101447.00;5010207;28;20715;-64
2020/12/02 04:50:26;;;;;;;46.47;15.13;;;;;;;3.32;100.00;101449.63;5020505;28;20284;-65
2020/12/02 04:53:00;;;;;;;47.40;16.67;;;;;;;3.30;100.00;101452.16;5016936;28;20341;-65
2020/12/02 04:55:27;;;;;;;46.57;16.13;;;;;;;3.28;100.00;101456.38;5011593;28;20292;-66
2020/12/02 04:57:53;;;;;;;48.63;15.27;;;;;;;3.30;100.00;101447.00;5012420;28;20276;-65
2020/12/02 05:00:25;;;;;;;53.77;16.87;;;;;;;3.28;100.00;101455.50;5013549;28;20284;-66
2020/12/02 05:02:51;;;;;;;;;;;;;;;3.30;100.00;101462.50;5009176;28;20542;-65
2020/12/02 05:05:20;;;;;;;45.03;14.40;;;;;;;3.32;100.00;101455.69;5010043;28;19917;-66
2020/12/02 05:07:46;;;;;;;40.93;14.20;;;;;;;3.29;100.00;101455.56;5011482;28;20018;-65
2020/12/02 05:10:17;;;;;;;45.77;14.73;;;;;;;3.27;100.00;101453.72;5009319;28;20285;-65
2020/12/02 05:12:46;;;;;;;49.72;15.75;;;;;;;3.31;100.00;101453.94;5008785;28;20114;-65
2020/12/02 05:15:24;;;;;;;38.47;11.17;;;;;;;3.37;100.00;101453.28;5012152;28;20664;-65
2020/12/02 05:18:05;;;;;;;46.03;13.17;;;;;;;3.33;100.00;101457.44;5011709;28;20273;-66
2020/12/02 05:20:31;;;;;;;36.97;12.97;;;;;;;3.32;100.00;101445.34;5007984;28;20289;-66
2020/12/02 05:23:10;;;;;;;42.13;14.10;;;;;;;3.30;100.00;101447.00;5012085;28;20311;-66
2020/12/02 05:25:36;;;;;;;45.53;14.53;;;;;;;3.27;100.00;101445.94;5013934;28;20285;-64
2020/12/02 05:28:18;;;;;;;44.20;13.50;;;;;;;3.27;100.00;101451.13;5008895;28;20345;-66
2020/12/02 05:30:43;;;;;;;43.28;14.52;;;;;;;3.28;100.00;101453.81;5007174;28;20032;-65
2020/12/02 05:33:12;;;;;;;46.70;15.13;;;;;;;3.27;100.00;101446.88;5010489;28;20448;-65
2020/12/02 05:35:47;;;;;;;40.00;13.47;;;;;;;3.28;100.00;101447.75;5012794;28;20053;-66
2020/12/02 05:38:20;;;;;;;41.57;14.37;;;;;;;3.27;100.00;101444.28;5011579;28;20351;-65
2020/12/02 05:40:48;;;;;;;42.30;14.13;;;;;;;3.27;100.00;101443.38;5007098;28;20926;-66
2020/12/02 05:43:27;;;;;;;43.40;13.83;;;;;;;3.23;100.00;101442.38;5016065;28;20284;-65
2020/12/02 05:45:53;;;;;;;45.67;14.70;;;;;;;3.21;100.00;101444.00;5012316;28;20294;-64
2020/12/02 05:48:25;;;;;;;44.20;13.60;;;;;;;3.18;100.00;101430.97;5012393;28;20277;-64
2020/12/02 05:50:54;;;;;;;43.33;14.02;;;;;;;3.23;100.00;101439.78;5020099;28;20165;-65
2020/12/02 05:53:25;;;;;;;44.83;15.20;;;;;;;3.25;100.00;101438.13;5007814;28;20084;-63
2020/12/02 05:55:50;;;;;;;47.77;14.77;;;;;;;3.21;100.00;101436.25;5013940;28;20370;-64
2020/12/02 05:58:20;;;;;;;45.03;15.33;;;;;;;3.23;100.00;101434.59;5011430;28;20911;-67
2020/12/02 06:00:46;;;;;;;43.87;14.30;;;;;;;3.22;100.00;101427.69;5015276;28;20026;-64
2020/12/02 06:03:16;;;;;;;44.23;15.63;;;;;;;3.21;100.00;101423.31;5021183;28;20288;-64
2020/12/02 06:05:41;;;;;;;42.90;14.60;;;;;;;3.19;100.00;101432.72;5017542;28;20033;-64
2020/12/02 06:08:08;;;;;;;42.93;14.97;;;;;;;3.17;100.00;101424.03;5012688;28;20647;-64
2020/12/02 06:10:42;;;;;;;43.80;15.20;;;;;;;3.16;100.00;101430.00;5025998;28;20030;-64
2020/12/02 06:13:14;;;;;;;46.40;14.83;;;;;;;3.15;100.00;101420.47;5020301;28;20664;-66
2020/12/02 06:15:40;;;;;;;46.72;14.23;;;;;;;3.16;100.00;101419.69;5012116;28;20292;-64
2020/12/02 06:18:35;;;;;;;48.33;15.03;;;;;;;3.17;100.00;101413.69;5011315;28;20566;-64
2020/12/02 06:21:02;;;;;;;52.40;15.30;;;;;;;3.17;100.00;101416.28;5007402;28;20037;-63
2020/12/02 06:23:45;;;;;;;43.23;14.50;;;;;;;3.15;100.00;101420.47;5015474;28;20291;-65
2020/12/02 06:26:11;;;;;;;44.43;13.17;;;;;;;3.13;100.00;101409.19;5013821;28;20773;-65
2020/12/02 06:28:36;;;;;;;43.63;15.37;;;;;;;3.12;100.00;101410.00;5014252;28;20277;-65
2020/12/02 06:31:12;;;;;;;44.97;15.00;;;;;;;3.10;100.00;101420.28;5014069;28;20429;-65
2020/12/02 06:33:40;;;;;;;48.73;14.23;;;;;;;3.10;100.00;101421.97;5007787;28;20527;-65
2020/12/02 06:36:30;;;;;;;46.13;14.47;;;;;;;3.09;100.00;101413.34;5008347;28;20284;-64
2020/12/02 06:39:24;;;;;;;45.30;13.63;;;;;;;3.08;100.00;101413.28;5016816;28;20292;-64
2020/12/02 06:41:50;;;;;;;42.80;12.57;;;;;;;3.11;100.00;101413.41;5003484;28;20688;-64
2020/12/02 06:44:16;;;;;;;50.93;16.10;;;;;;;3.11;100.00;101414.28;5005212;28;20343;-66
2020/12/02 06:47:18;;;;;;;42.60;16.67;;;;;;;3.11;100.00;101409.13;5009269;28;20066;-65
2020/12/02 06:49:44;;;;;;;45.03;14.38;;;;;;;3.10;100.00;101402.19;5022160;28;20091;-65
2020/12/02 06:52:32;;;;;;;44.27;13.77;;;;;;;3.12;100.00;101410.00;5016101;28;20033;-64
2020/12/02 06:55:00;;;;;;;42.27;13.23;;;;;;;3.13;100.00;101406.59;5005630;28;20048;-65
2020/12/02 06:57:29;;;;;;;50.70;15.17;;;;;;;3.13;100.00;101416.94;5013558;28;20383;-64
2020/12/02 06:59:57;;;;;;;46.50;15.03;;;;;;;3.10;100.00;101411.66;5007773;28;20312;-64
2020/12/02 07:02:53;;;;;;;39.93;13.07;;;;;;;3.12;100.00;101410.00;5008521;28;20276;-65
2020/12/02 07:05:35;;;;;;;37.97;12.00;;;;;;;3.12;100.00;101404.84;5010317;28;20284;-63
2020/12/02 07:08:24;;;;;;;40.40;13.88;;;;;;;3.10;100.00;101414.22;5018050;28;20375;-65
2020/12/02 07:10:58;;;;;;;41.30;13.67;;;;;;;3.08;100.00;101405.53;5012343;28;20037;-64
2020/12/02 07:13:25;;;;;;;45.07;13.43;;;;;;;3.06;100.00;101404.59;5032082;28;20658;-66
2020/12/02 07:15:51;;;;;;;44.63;13.77;;;;;;;3.08;100.00;101408.13;5022234;28;20299;-64
2020/12/02 07:18:20;;;;;;;47.17;15.67;;;;;;;3.05;100.00;101402.81;5023029;28;20659;-66
2020/12/02 07:20:53;;;;;;;41.30;13.50;;;;;;;3.09;100.00;101399.53;5021570;28;20052;-65
2020/12/02 07:23:21;;;;;;;42.33;14.47;;;;;;;3.11;100.00;101405.66;5018666;28;20272;-65
2020/12/02 07:25:47;;;;;;;45.93;14.37;;;;;;;3.07;100.00;101393.44;5019885;28;20299;-66
2020/12/02 07:28:17;;;;;;;49.17;15.63;;;;;;;3.07;100.00;101396.03;5016492;28;20312;-64
2020/12/02 07:30:42;;;;;;;43.40;14.57;;;;;;;3.05;100.00;101398.53;5016439;28;21070;-65
2020/12/02 07:33:16;;;;;;;45.30;14.43;;;;;;;3.09;100.00;101404.72;5020718;28;20287;-65
2020/12/02 07:35:42;;;;;;;40.93;13.80;;;;;;;3.08;100.00;101392.63;5015927;28;20041;-65
2020/12/02 07:38:10;;;;;;;42.87;14.63;;;;;;;3.08;100.00;101382.28;5026454;28;20276;-64
2020/12/02 07:40:38;;;;;;;48.83;14.43;;;;;;;3.08;100.00;101382.28;5022839;28;20037;-63
2020/12/02 07:43:11;;;;;;;48.00;15.47;;;;;;;3.10;100.00;101385.81;5009767;28;20646;-65
2020/12/02 07:45:36;;;;;;;;;;;;;;;3.12;100.00;101386.75;5014689;28;20682;-65
2020/12/02 07:48:26;;;;;;;44.37;14.67;;;;;;;3.13;100.00;101383.34;5037083;28;19920;-65
2020/12/02 07:51:16;;;;;;;45.73;13.73;;;;;;;3.13;100.00;101388.50;5019272;28;20045;-65
2020/12/02 07:53:54;;;;;;;41.97;14.13;;;;;;;3.13;100.00;101383.34;5020137;28;20284;-64
2020/12/02 07:56:31;;;;;;;46.77;16.60;;;;;;;3.13;100.00;101385.94;5025337;28;21058;-64
2020/12/02 07:59:14;;;;;;;45.37;15.27;;;;;;;3.12;100.00;101389.34;5022286;28;20288;-65
2020/12/02 08:01:50;;;;;;;46.45;13.15;;;;;;;3.13;100.00;101391.09;5018909;28;21225;-65
2020/12/02 08:04:21;;;;;;;41.47;12.80;;;;;;;3.13;100.00;101389.41;5015776;28;20056;-64
2020/12/02 08:07:01;;;;;;;44.83;14.57;;;;;;;3.12;100.00;101384.16;5021456;28;20273;-65
2020/12/02 08:09:28;;;;;;;51.87;15.23;;;;;;;3.11;100.00;101378.13;5026001;28;20283;-65
2020/12/02 08:12:01;;;;;;;37.50;12.83;;;;;;;3.11;100.00;101380.69;5015635;28;20299;-65
2020/12/02 08:14:32;;;;;;;;;;;;;;;3.13;100.00;101384.22;5020699;28;20287;-65
2020/12/02 08:17:18;;;;;;;37.60;13.37;;;;;;;3.14;100.00;101382.53;5018741;28;19922;-65
2020/12/02 08:19:47;;;;;;;40.67;14.10;;;;;;;3.15;100.00;101374.88;5023878;28;20284;-65
2020/12/02 08:22:31;;;;;;;40.67;14.90;;;;;;;3.15;100.00;101367.13;5015997;28;20331;-65
2020/12/02 08:25:32;;;;;;;43.07;14.60;;;;;;;3.16;100.00;101366.28;5015080;28;20279;-64
2020/12/02 08:28:00;;;;;;;37.87;13.50;;;;;;;3.18;100.00;101366.34;5013950;28;20280;-64
2020/12/02 08:30:28;;;;;;;39.77;13.63;;;;;;;3.19;100.00;101368.13;5029386;28;20292;-65
2020/12/02 08:33:07;;;;;;;40.83;14.37;;;;;;;3.19;100.00;101356.06;5025416;28;20303;-65
2020/12/02 08:35:44;;;;;;;36.60;12.97;;;;;;;3.17;100.00;101357.72;5026041;28;20280;-64
2020/12/02 08:38:27;;;;;;;40.03;13.27;;;;;;;3.20;100.00;101357.84;5023753;28;20860;-65
2020/12/02 08:40:58;;;;;;;44.43;14.03;;;;;;;3.22;100.00;101357.91;5021840;28;20326;-65
2020/12/02 08:43:23;;;;;;;38.50;13.03;;;;;;;3.23;100.00;101357.97;5024143;28;20283;-66
2020/12/02 08:45:59;;;;;;;41.80;13.63;;;;;;;3.22;100.00;101352.72;5027344;28;20852;-64
2020/12/02 08:48:25;;;;;;;35.13;12.87;;;;;;;3.19;100.00;101350.91;5030201;28;20031;-64
2020/12/02 08:50:50;;;;;;;42.97;14.70;;;;;;;3.21;100.00;101356.13;5028163;28;20766;-64
2020/12/02 08:53:24;;;;;;;39.53;12.93;;;;;;;3.25;100.00;101345.09;5025480;28;20483;-66
2020/12/02 08:55:50;;;;;;;36.17;13.17;;;;;;;3.23;100.00;101339.00;5027446;28;20073;-65
2020/12/02 08:58:15;;;;;;;46.00;13.20;;;;;;;3.26;100.00;101341.69;5028937;28;20346;-65
2020/12/02 09:00:41;;;;;;;35.00;12.13;;;;;;;3.28;100.00;101350.41;5028775;28;20040;-65
2020/12/02 09:03:06;;;;;;;40.17;13.30;;;;;;;3.26;100.00;101346.84;5026339;28;20083;-66
2020/12/02 09:05:32;;;;;;;38.17;12.03;;;;;;;3.29;100.00;101341.84;5026307;28;20037;-65
2020/12/02 09:07:57;;;;;;;39.40;13.17;;;;;;;3.28;100.00;101349.53;5029095;28;20099;-65
2020/12/02 09:10:23;;;;;;;36.23;13.23;;;;;;;3.31;100.00;101335.03;5027240;28;20535;-64
2020/12/02 09:12:48;;;;;;;42.07;14.47;;;;;;;3.30;100.00;101338.44;5026909;28;20037;-66
2020/12/02 09:15:14;;;;;;;39.20;14.77;;;;;;;3.31;100.00;101332.44;5030293;28;20553;-65
2020/12/02 09:17:39;;;;;;;41.07;14.60;;;;;;;3.32;100.00;101318.69;5023072;28;20025;-64
2020/12/02 09:20:05;;;;;;;39.90;13.50;;;;;;;3.35;100.00;101330.84;5025413;28;20038;-65
2020/12/02 09:22:30;;;;;;;39.23;14.30;;;;;;;3.35;100.00;101320.50;5027486;28;20032;-65
2020/12/02 09:24:56;;;;;;;40.37;13.27;;;;;;;3.36;100.00;101323.16;5022942;28;20030;-64
2020/12/02 09:27:21;;;;;;;36.53;12.83;;;;;;;3.38;100.00;101318.03;5024379;28;20061;-64
2020/12/02 09:29:46;;;;;;;43.30;13.50;;;;;;;3.40;100.00;101322.50;5020790;28;20025;-65
2020/12/02 09:32:12;;;;;;;35.77;12.13;;;;;;;3.42;100.00;101313.09;5025690;28;20029;-66
2020/12/02 09:34:37;;;;;;;38.00;13.23;;;;;;;3.39;100.00;101307.81;5029774;28;20021;-64
2020/12/02 09:37:07;;;;;;;38.67;14.23;;;;;;;3.41;100.00;101311.31;5025427;28;20045;-65
2020/12/02 09:39:33;;;;;;;39.43;13.80;;;;;;;3.38;100.00;101306.00;5028828;28;20030;-65
2020/12/02 09:42:18;;;;;;;37.80;13.13;;;;;;;3.40;100.00;101299.22;5022954;28;20414;-64
2020/12/02 09:45:04;;;;;;;32.87;12.17;;;;;;;3.40;100.00;101288.88;5021852;28;20021;-64
2020/12/02 09:47:30;;;;;;;39.80;13.47;;;;;;;3.38;100.00;101287.03;5023232;28;20359;-65
2020/12/02 09:49:55;;;;;;;36.10;13.73;;;;;;;3.34;100.00;101277.41;5024744;28;20378;-64
2020/12/02 09:52:36;;;;;;;35.93;12.13;;;;;;;3.38;100.00;101274.97;5028196;28;20067;-65
2020/12/02 09:55:10;;;;;;;40.90;13.50;;;;;;;3.37;100.00;101270.63;5028506;28;20483;-64
2020/12/02 09:57:35;;;;;;;34.10;13.23;;;;;;;3.39;100.00;101270.69;5026803;28;20800;-65
2020/12/02 10:00:00;;;;;;;32.43;11.77;;;;;;;3.41;100.00;101269.09;5025796;28;20382;-66
2020/12/02 10:02:35;;;;;;;36.00;12.30;;;;;;;3.40;100.00;101264.75;5028183;28;20396;-65
2020/12/02 10:05:03;;;;;;;44.13;13.17;;;;;;;3.41;100.00;101266.50;5027687;28;20040;-66
2020/12/02 10:07:29;;;;;;;41.50;13.67;;;;;;;3.36;100.00;101261.13;5027139;28;20654;-66
2020/12/02 10:10:23;;;;;;;40.83;14.60;;;;;;;3.34;100.00;101252.44;5021123;28;20276;-64
2020/12/02 10:13:28;;;;;;;39.60;13.07;;;;;;;3.35;100.00;101254.19;5022135;28;20033;-64
2020/12/02 10:16:29;;;;;;;39.27;13.83;;;;;;;3.31;100.00;101235.94;5013933;28;20658;-63
2020/12/02 10:19:16;;;;;;;36.17;12.90;;;;;;;3.34;100.00;101233.47;5023258;28;20379;-64
2020/12/02 10:21:44;;;;;;;40.57;14.00;;;;;;;3.32;100.00;101229.94;5015072;28;20280;-64
2020/12/02 10:24:19;;;;;;;38.93;13.77;;;;;;;3.31;100.00;101226.47;5023195;28;20323;-65
2020/12/02 10:26:59;;;;;;;39.83;12.87;;;;;;;3.31;100.00;101226.47;5022723;28;20299;-64
2020/12/02 10:29:32;;;;;;;39.77;13.23;;;;;;;3.32;100.00;101217.91;5025075;28;20879;-64
2020/12/02 10:31:57;;;;;;;;;;;;;;;3.32;100.00;101217.91;5027626;28;20279;-65
2020/12/02 10:34:31;;;;;;;35.60;11.43;;;;;;;3.31;100.00;101210.97;5026800;28;20359;-64
2020/12/02 10:37:01;;;;;;;41.13;14.63;;;;;;;3.28;100.00;101208.28;5007492;28;20037;-65
2020/12/02 10:39:30;;;;;;;44.10;15.03;;;;;;;3.29;100.00;101202.28;5010511;28;20652;-65
2020/12/02 10:41:58;;;;;;;43.30;15.07;;;;;;;3.30;100.00;101206.63;5010526;28;20620;-65
2020/12/02 10:44:55;;;;;;;39.30;13.43;;;;;;;3.34;100.00;101189.53;5015316;28;20288;-65
2020/12/02 10:47:40;;;;;;;36.13;11.83;;;;;;;3.33;100.00;101180.00;5019057;28;20284;-64
2020/12/02 10:50:08;;;;;;;45.00;13.87;;;;;;;3.35;100.00;101184.41;5026508;28;20618;-65
2020/12/02 10:52:33;;;;;;;43.03;14.67;;;;;;;3.35;100.00;101176.66;5026606;28;20330;-65
2020/12/02 10:55:01;;;;;;;53.37;16.80;;;;;;;3.34;100.00;101164.56;5028604;28;20284;-65
2020/12/02 10:57:26;;;;;;;43.80;14.80;;;;;;;3.37;100.00;101168.94;5025521;28;20021;-65
2020/12/02 10:59:54;;;;;;;51.37;16.67;;;;;;;3.36;100.00;101165.50;5025897;28;20333;-65
2020/12/02 11:02:24;;;;;;;45.03;15.27;;;;;;;3.38;100.00;101165.53;5026270;28;20029;-65
2020/12/02 11:04:49;;;;;;;50.17;16.13;;;;;;;3.39;100.00;101157.88;5026812;28;20843;-65
2020/12/02 11:07:23;;;;;;;46.67;15.10;;;;;;;3.36;100.00;101162.91;5023564;28;20276;-64
2020/12/02 11:10:01;;;;;;;46.67;14.50;;;;;;;3.40;100.00;101154.47;5027170;28;20022;-64
2020/12/02 11:12:41;;;;;;;45.63;15.00;;;;;;;3.38;100.00;101140.56;5026603;28;20283;-65
2020/12/02 11:15:58;;;;;;;42.83;14.07;;;;;;;3.36;100.00;101134.47;5013448;28;20362;-65
2020/12/02 11:18:54;;;;;;;54.87;14.30;;;;;;;3.36;100.00;101131.88;4999280;28;20292;-64
2020/12/02 11:21:43;;;;;;;47.17;15.27;;;;;;;3.39;100.00;101129.44;5016437;28;20673;-65
2020/12/02 11:24:39;;;;;;;48.53;14.17;;;;;;;3.40;100.00;101120.84;5020819;28;20279;-65
2020/12/02 11:27:05;;;;;;;48.17;14.97;;;;;;;3.37;100.00;101127.59;5020092;28;20276;-64
2020/12/02 11:29:30;;;;;;;45.87;14.60;;;;;;;3.38;100.00;101124.19;5019934;28;20337;-65
2020/12/02 11:31:56;;;;;;;41.07;13.40;;;;;;;3.40;100.00;101123.44;5026380;28;20027;-64